CheckWX is a tool to help pilots better visualize weather data.  It is not intended as a substitute for an official pre-flight weather briefing.

18:03:29 UTC

KFFA METAR
First Flight Airport
Kill Devil Hills, North Carolina, USA
Current

28 mins ago

KFFA 201735Z AUTO 04006KT 10SM BKN060 OVC080 08/01 A3033 RMK AO2 T00800011
Observed
Feb-20 @ 17:35 UTC
Wind
  • 040° at 6 KTS
Visibility
10 SM
Flight Rules
VFR
Cloud Levels
  • Broken at 6,000' AGL
  • Overcast at 8,000' AGL
Temperature
C / 46°F
Dewpoint
C / 34°F
Humidity
62%
Altimeter
30.33" Hg
Pressure
1027.12 hPa
Previous

48 mins ago

KFFA 201715Z AUTO 03007KT 010V070 10SM OVC070 08/01 A3035 RMK AO2 T00790013
Observed
Feb-20 @ 17:15 UTC
Wind
  • 030° at 7 KTS
Visibility
10 SM
Flight Rules
VFR
Cloud Levels
  • Overcast at 7,000' AGL
Temperature
C / 46°F
Dewpoint
C / 34°F
Humidity
62%
Altimeter
30.35" Hg
Pressure
1027.82 hPa
Previous

1 hour ago

KFFA 201655Z AUTO 04006KT 010V070 10SM OVC070 08/01 A3036 RMK AO2 T00780010
Observed
Feb-20 @ 16:55 UTC
Wind
  • 040° at 6 KTS
Visibility
10 SM
Flight Rules
VFR
Cloud Levels
  • Overcast at 7,000' AGL
Temperature
C / 46°F
Dewpoint
C / 34°F
Humidity
62%
Altimeter
30.36" Hg
Pressure
1028.12 hPa